createdAt,value
2023-05-28T00:00:12.623Z,58.23
2023-05-28T00:03:01.828Z,58.42
2023-05-28T00:05:30.756Z,58.70
2023-05-28T00:08:01.854Z,58.83
2023-05-28T00:10:32.047Z,58.62
2023-05-28T00:13:01.069Z,58.88
2023-05-28T00:15:29.822Z,58.13
2023-05-28T00:17:58.955Z,56.88
2023-05-28T00:20:27.900Z,58.10
2023-05-28T00:22:57.087Z,58.65
2023-05-28T00:25:26.012Z,57.96
2023-05-28T00:27:56.472Z,58.47
2023-05-28T00:30:26.076Z,57.85
2023-05-28T00:32:55.236Z,58.11
2023-05-28T00:35:24.046Z,58.22
2023-05-28T00:37:54.109Z,58.59
2023-05-28T00:40:23.134Z,59.14
2023-05-28T00:42:53.130Z,59.70
2023-05-28T00:45:23.472Z,59.95
2023-05-28T00:47:52.972Z,59.69
2023-05-28T00:50:22.167Z,59.49
2023-05-28T00:52:53.165Z,59.51
2023-05-28T00:55:22.796Z,59.34
2023-05-28T00:57:54.579Z,59.69
2023-05-28T01:00:25.677Z,59.94
2023-05-28T01:02:55.002Z,60.41
2023-05-28T01:05:23.824Z,59.34
2023-05-28T01:07:53.613Z,58.82
2023-05-28T01:10:22.730Z,58.76
2023-05-28T01:12:53.795Z,58.00
2023-05-28T01:15:24.492Z,58.81
2023-05-28T01:18:01.253Z,58.33
2023-05-28T01:20:32.974Z,58.26
2023-05-28T01:23:09.063Z,58.58
2023-05-28T01:25:40.049Z,59.83
2023-05-28T01:28:16.294Z,59.96
2023-05-28T01:30:47.010Z,59.99
2023-05-28T01:33:17.475Z,60.27
2023-05-28T01:35:46.743Z,60.21
2023-05-28T01:38:19.134Z,59.87
2023-05-28T01:40:51.340Z,59.94
2023-05-28T01:43:20.577Z,58.92
2023-05-28T01:45:50.807Z,59.22
2023-05-28T01:48:21.400Z,59.26
2023-05-28T01:50:50.446Z,59.83
2023-05-28T01:53:19.511Z,59.72
2023-05-28T01:55:49.619Z,60.17
2023-05-28T01:58:18.717Z,60.49
2023-05-28T02:01:02.684Z,60.15
2023-05-28T02:03:31.969Z,60.84
2023-05-28T02:06:00.765Z,61.15
2023-05-28T02:08:29.836Z,61.17
2023-05-28T02:11:01.344Z,61.23
2023-05-28T02:13:31.593Z,61.79
2023-05-28T02:16:00.449Z,61.98
2023-05-28T02:18:29.776Z,61.76
2023-05-28T02:20:58.858Z,61.92
2023-05-28T02:23:27.932Z,61.41
2023-05-28T02:25:56.623Z,61.53
2023-05-28T02:28:27.100Z,63.72
2023-05-28T02:30:56.652Z,62.93
2023-05-28T02:33:25.672Z,67.23
2023-05-28T02:35:56.106Z,65.51
2023-05-28T02:38:25.764Z,65.09
2023-05-28T02:40:54.715Z,63.79
2023-05-28T02:43:24.114Z,63.65
2023-05-28T02:45:54.508Z,62.79
2023-05-28T02:48:23.961Z,63.28
2023-05-28T02:50:52.783Z,62.82
2023-05-28T02:53:40.622Z,63.63
2023-05-28T02:56:09.423Z,63.62
2023-05-28T02:58:43.286Z,63.78
2023-05-28T03:01:13.851Z,63.20
2023-05-28T03:03:43.003Z,63.47
2023-05-28T03:06:12.190Z,63.13
2023-05-28T03:08:49.140Z,64.26
2023-05-28T03:11:17.877Z,63.54
2023-05-28T03:13:47.504Z,63.40
2023-05-28T03:16:17.954Z,64.44
2023-05-28T03:18:47.714Z,64.01
2023-05-28T03:21:16.985Z,63.62
2023-05-28T03:23:46.009Z,64.70
2023-05-28T03:26:27.770Z,63.57
2023-05-28T03:28:57.128Z,63.47
2023-05-28T03:31:30.891Z,63.43
2023-05-28T03:34:02.224Z,64.13
2023-05-28T03:36:31.374Z,63.93
2023-05-28T03:39:00.923Z,63.73
2023-05-28T03:41:30.289Z,63.78
2023-05-28T03:44:01.100Z,64.82
2023-05-28T03:46:31.522Z,64.27
2023-05-28T03:49:01.153Z,64.40
2023-05-28T03:51:33.035Z,64.17
2023-05-28T03:54:02.952Z,64.82
2023-05-28T03:56:34.822Z,63.34
2023-05-28T03:59:05.798Z,65.77
2023-05-28T04:01:37.265Z,67.48
2023-05-28T04:04:08.587Z,65.17
2023-05-28T04:06:38.008Z,66.05
2023-05-28T04:09:09.513Z,64.79
2023-05-28T04:11:39.813Z,67.34
2023-05-28T04:14:14.634Z,66.14
2023-05-28T04:16:44.904Z,66.11
2023-05-28T04:19:14.472Z,66.43
2023-05-28T04:21:43.581Z,65.94
2023-05-28T04:24:12.589Z,63.74
2023-05-28T04:26:41.844Z,62.56
2023-05-28T04:29:10.850Z,62.54
2023-05-28T04:31:41.882Z,61.41
2023-05-28T04:34:12.739Z,60.64
2023-05-28T04:36:42.702Z,59.19
2023-05-28T04:39:12.137Z,56.26
2023-05-28T04:41:41.286Z,57.10
2023-05-28T04:44:10.361Z,58.18
2023-05-28T04:46:41.322Z,57.35
2023-05-28T04:49:13.199Z,53.60
2023-05-28T04:51:42.262Z,54.22
2023-05-28T04:54:11.676Z,52.10
2023-05-28T04:56:40.736Z,50.49
2023-05-28T04:59:10.885Z,50.74
2023-05-28T05:01:41.153Z,49.09
2023-05-28T05:04:11.838Z,50.14
2023-05-28T05:06:40.713Z,47.98
2023-05-28T05:09:09.814Z,47.08
2023-05-28T05:11:38.858Z,46.59
2023-05-28T05:14:08.870Z,46.12
2023-05-28T05:16:37.940Z,45.85
2023-05-28T05:19:07.714Z,45.05
2023-05-28T05:21:37.907Z,45.67
2023-05-28T05:24:07.941Z,44.49
2023-05-28T05:26:36.738Z,45.34
2023-05-28T05:29:06.601Z,45.21
2023-05-28T05:31:35.450Z,43.67
2023-05-28T05:34:05.414Z,43.62
2023-05-28T05:36:55.030Z,42.89
2023-05-28T05:39:43.089Z,43.98
2023-05-28T05:42:24.598Z,40.81
2023-05-28T05:44:56.909Z,41.18
2023-05-28T05:47:26.831Z,41.02
2023-05-28T05:49:57.955Z,40.27
2023-05-28T05:52:28.235Z,40.64
2023-05-28T05:54:58.330Z,38.98
2023-05-28T05:57:27.809Z,38.71
2023-05-28T05:59:57.810Z,39.59
2023-05-28T06:02:27.199Z,39.13
2023-05-28T06:04:59.314Z,38.56
2023-05-28T06:08:09.058Z,38.77
2023-05-28T06:10:57.242Z,39.34
2023-05-28T06:13:26.076Z,38.21
2023-05-28T06:15:55.542Z,35.87
2023-05-28T06:18:24.985Z,37.71
2023-05-28T06:20:54.252Z,35.71
2023-05-28T06:23:24.894Z,36.76
2023-05-28T06:25:54.550Z,35.80
2023-05-28T06:28:23.537Z,35.48
2023-05-28T06:30:52.870Z,35.61
2023-05-28T06:33:21.955Z,35.90
2023-05-28T06:35:52.017Z,35.09
2023-05-28T06:38:22.241Z,34.91
2023-05-28T06:40:52.960Z,35.24
2023-05-28T06:43:23.613Z,34.79
2023-05-28T06:46:12.519Z,34.11
2023-05-28T06:48:41.832Z,35.75
2023-05-28T06:51:10.899Z,35.44
2023-05-28T06:53:40.147Z,35.23
2023-05-28T06:56:10.915Z,36.87
2023-05-28T06:58:39.765Z,34.49
2023-05-28T07:01:09.045Z,35.30
2023-05-28T07:03:50.001Z,34.27
2023-05-28T07:06:42.987Z,33.32
2023-05-28T07:09:17.131Z,33.81
2023-05-28T07:11:48.130Z,34.04
2023-05-28T07:14:17.076Z,31.52
2023-05-28T07:16:46.595Z,32.25
2023-05-28T07:19:15.527Z,33.46
2023-05-28T07:21:45.529Z,31.56
2023-05-28T07:24:15.122Z,31.35
2023-05-28T07:26:45.783Z,31.88
2023-05-28T07:29:19.819Z,31.99
2023-05-28T07:31:49.401Z,32.78
2023-05-28T07:34:20.568Z,31.74
2023-05-28T07:36:49.762Z,32.33
2023-05-28T07:39:19.000Z,31.42
2023-05-28T07:41:49.025Z,30.96
2023-05-28T07:44:26.576Z,30.26
2023-05-28T07:46:55.690Z,30.69
2023-05-28T07:50:03.413Z,32.25
2023-05-28T07:52:51.510Z,31.30
2023-05-28T07:55:22.267Z,31.26
2023-05-28T07:57:52.143Z,31.19
2023-05-28T08:00:22.963Z,32.21
2023-05-28T08:03:03.299Z,31.07
2023-05-28T08:05:41.773Z,31.39
2023-05-28T08:08:11.481Z,32.06
2023-05-28T08:10:41.119Z,31.60
2023-05-28T08:13:10.546Z,32.08
2023-05-28T08:15:40.992Z,30.88
2023-05-28T08:18:12.869Z,31.21
2023-05-28T08:20:42.404Z,32.74
2023-05-28T08:23:25.701Z,32.50
2023-05-28T08:25:56.018Z,32.45
2023-05-28T08:28:31.593Z,32.33
2023-05-28T08:31:03.205Z,31.59
2023-05-28T08:33:55.164Z,33.21
2023-05-28T08:36:23.994Z,32.22
2023-05-28T08:38:56.921Z,32.17
2023-05-28T08:41:27.049Z,31.77
2023-05-28T08:43:57.107Z,32.96
2023-05-28T08:46:29.765Z,32.49
2023-05-28T08:49:32.609Z,32.07
2023-05-28T08:52:04.522Z,31.97
2023-05-28T08:54:36.802Z,33.10
2023-05-28T08:57:06.966Z,32.40
2023-05-28T08:59:47.148Z,32.60
2023-05-28T09:02:17.409Z,32.14
2023-05-28T09:04:47.509Z,32.37
2023-05-28T09:07:17.551Z,32.92
2023-05-28T09:09:54.653Z,31.78
2023-05-28T09:12:24.812Z,31.06
2023-05-28T09:15:01.222Z,31.79
2023-05-28T09:17:38.333Z,29.58
2023-05-28T09:20:15.406Z,30.69
2023-05-28T09:22:45.734Z,32.11
2023-05-28T09:25:34.061Z,30.83
2023-05-28T09:28:15.645Z,30.81
2023-05-28T09:30:44.750Z,32.07
2023-05-28T09:33:14.971Z,30.01
2023-05-28T09:35:44.345Z,29.94
2023-05-28T09:38:14.204Z,30.01
2023-05-28T09:40:44.618Z,29.36
2023-05-28T09:43:13.709Z,29.16
2023-05-28T09:45:42.787Z,31.31
2023-05-28T09:48:11.576Z,30.34
2023-05-28T09:50:42.136Z,31.20
2023-05-28T09:53:13.038Z,29.99
2023-05-28T09:55:42.721Z,31.10
2023-05-28T09:58:15.387Z,29.47
2023-05-28T10:00:50.899Z,29.33
2023-05-28T10:03:27.942Z,28.33
2023-05-28T10:06:03.384Z,28.43
2023-05-28T10:08:39.184Z,29.15
2023-05-28T10:11:14.201Z,28.07
2023-05-28T10:13:43.958Z,27.78
2023-05-28T10:16:14.099Z,29.61
2023-05-28T10:18:44.402Z,29.87
2023-05-28T10:21:15.907Z,29.23
2023-05-28T10:23:46.074Z,28.00
2023-05-28T10:26:16.845Z,27.67
2023-05-28T10:28:45.760Z,27.96
2023-05-28T10:31:14.904Z,28.08
2023-05-28T10:33:44.557Z,27.25
2023-05-28T10:36:17.244Z,27.76
2023-05-28T10:38:48.001Z,27.46
2023-05-28T10:41:24.144Z,27.77
2023-05-28T10:43:54.046Z,26.95
2023-05-28T10:46:38.264Z,28.96
2023-05-28T10:49:16.220Z,28.46
2023-05-28T10:52:03.757Z,27.86
2023-05-28T10:54:46.457Z,26.94
2023-05-28T10:57:20.309Z,28.15
2023-05-28T10:59:51.960Z,27.94
2023-05-28T11:02:25.799Z,26.76
2023-05-28T11:04:57.652Z,27.43
2023-05-28T11:07:34.606Z,27.89
2023-05-28T11:10:06.572Z,26.17
2023-05-28T11:12:39.232Z,25.88
2023-05-28T11:15:11.446Z,27.06
2023-05-28T11:17:42.004Z,27.15
2023-05-28T11:20:20.755Z,26.93
2023-05-28T11:22:51.538Z,25.80
2023-05-28T11:25:21.628Z,26.01
2023-05-28T11:27:51.595Z,26.97
2023-05-28T11:30:22.578Z,27.39
2023-05-28T11:32:52.194Z,27.28
2023-05-28T11:35:20.912Z,28.68
2023-05-28T11:37:51.360Z,28.39
2023-05-28T11:40:20.197Z,28.30
2023-05-28T11:42:49.206Z,29.73
2023-05-28T11:45:18.051Z,29.34
2023-05-28T11:47:47.846Z,29.44
2023-05-28T11:50:17.754Z,28.81
2023-05-28T11:52:48.099Z,29.55
2023-05-28T11:55:19.992Z,29.88
2023-05-28T11:57:56.486Z,29.67
2023-05-28T12:00:34.950Z,29.87
2023-05-28T12:03:04.507Z,30.15
2023-05-28T12:05:39.845Z,29.76
2023-05-28T12:08:09.151Z,30.68
2023-05-28T12:10:39.403Z,31.59
2023-05-28T12:13:08.454Z,30.68
2023-05-28T12:15:37.444Z,30.85
2023-05-28T12:18:08.175Z,31.32
2023-05-28T12:20:43.410Z,30.90
2023-05-28T12:23:14.281Z,31.94
2023-05-28T12:25:51.963Z,31.16
2023-05-28T12:28:22.984Z,31.55
2023-05-28T12:30:56.162Z,32.23
2023-05-28T12:33:26.513Z,31.59
2023-05-28T12:35:57.509Z,30.41
2023-05-28T12:38:26.486Z,31.57
2023-05-28T12:40:57.054Z,31.76
2023-05-28T12:43:26.346Z,31.83
2023-05-28T12:45:55.293Z,31.95
2023-05-28T12:48:24.492Z,32.38
2023-05-28T12:50:53.331Z,31.16
2023-05-28T12:53:22.512Z,31.45
2023-05-28T12:55:51.373Z,30.63
2023-05-28T12:58:22.381Z,32.10
2023-05-28T13:00:51.599Z,32.78
2023-05-28T13:03:20.953Z,32.76
2023-05-28T13:05:51.275Z,31.41
2023-05-28T13:08:20.304Z,31.00
2023-05-28T13:10:49.076Z,30.65
2023-05-28T13:13:18.166Z,31.22
2023-05-28T13:15:48.313Z,30.53
2023-05-28T13:18:17.297Z,30.72
2023-05-28T13:20:46.308Z,30.70
2023-05-28T13:23:15.426Z,31.11
2023-05-28T13:25:44.291Z,31.44
2023-05-28T13:28:13.485Z,32.39
2023-05-28T13:30:42.290Z,31.99
2023-05-28T13:33:12.710Z,31.66
2023-05-28T13:35:41.404Z,30.86
2023-05-28T13:38:11.087Z,31.33
2023-05-28T13:40:40.393Z,31.09
2023-05-28T13:43:09.490Z,31.22
2023-05-28T13:45:38.159Z,31.17
2023-05-28T13:48:08.321Z,31.50
2023-05-28T13:50:38.410Z,31.49
2023-05-28T13:53:07.452Z,31.69
2023-05-28T13:55:36.157Z,31.29
2023-05-28T13:58:05.450Z,32.03
2023-05-28T14:00:39.000Z,31.57
2023-05-28T14:03:09.506Z,31.11
2023-05-28T14:05:39.923Z,30.77
2023-05-28T14:08:09.435Z,30.79
2023-05-28T14:10:38.337Z,30.76
2023-05-28T14:13:07.565Z,31.80
2023-05-28T14:15:36.362Z,32.04
2023-05-28T14:18:07.578Z,32.14
2023-05-28T14:20:36.558Z,31.66
2023-05-28T14:23:07.263Z,31.06
2023-05-28T14:25:36.055Z,31.44
2023-05-28T14:30:39.231Z,32.35
2023-05-28T14:33:08.838Z,32.64
2023-05-28T14:35:37.755Z,31.63
2023-05-28T14:38:08.240Z,31.53
2023-05-28T14:40:37.118Z,31.80
2023-05-28T14:43:06.123Z,32.09
2023-05-28T14:45:34.836Z,31.29
2023-05-28T14:48:04.026Z,31.66
2023-05-28T14:50:32.799Z,31.14
2023-05-28T14:53:01.831Z,31.12
2023-05-28T14:55:32.158Z,31.37
2023-05-28T14:58:01.223Z,31.77
2023-05-28T15:00:30.159Z,31.53
2023-05-28T15:02:59.344Z,30.86
2023-05-28T15:05:29.173Z,31.45
2023-05-28T15:07:58.282Z,30.82
2023-05-28T15:10:27.117Z,30.06
2023-05-28T15:12:58.574Z,30.59
2023-05-28T15:15:27.474Z,30.23
2023-05-28T15:17:56.553Z,30.11
2023-05-28T15:20:25.433Z,30.19
2023-05-28T15:22:54.589Z,28.88
2023-05-28T15:25:24.759Z,30.10
2023-05-28T15:27:54.257Z,29.65
2023-05-28T15:30:25.666Z,30.09
2023-05-28T15:32:59.017Z,30.34
2023-05-28T15:35:29.766Z,30.88
2023-05-28T15:37:59.891Z,30.46
2023-05-28T15:40:29.770Z,31.09
2023-05-28T15:43:06.084Z,30.43
2023-05-28T15:45:36.783Z,30.93
2023-05-28T15:48:05.995Z,30.58
2023-05-28T15:50:36.216Z,29.99
2023-05-28T15:53:05.376Z,30.00
2023-05-28T15:55:34.788Z,29.65
2023-05-28T15:58:04.267Z,29.52
2023-05-28T16:00:35.601Z,30.11
2023-05-28T16:03:07.333Z,29.97
2023-05-28T16:05:39.939Z,30.86
2023-05-28T16:08:11.570Z,29.88
2023-05-28T16:10:40.933Z,30.14
2023-05-28T16:13:12.286Z,29.80
2023-05-28T16:15:43.173Z,29.52
2023-05-28T16:18:14.096Z,30.59
2023-05-28T16:20:43.651Z,30.76
2023-05-28T16:23:13.698Z,30.25
2023-05-28T16:25:43.398Z,29.94
2023-05-28T16:28:13.259Z,29.36
2023-05-28T16:30:45.148Z,29.77
2023-05-28T16:33:15.274Z,30.00
2023-05-28T16:35:44.830Z,30.21
2023-05-28T16:38:14.590Z,29.77
2023-05-28T16:40:43.867Z,29.89
2023-05-28T16:43:13.741Z,30.12
2023-05-28T16:45:44.537Z,28.99
2023-05-28T16:48:14.542Z,29.80
2023-05-28T16:50:43.447Z,28.98
2023-05-28T16:53:16.508Z,30.25
2023-05-28T16:55:46.432Z,29.64
2023-05-28T16:58:15.600Z,29.63
2023-05-28T17:00:45.825Z,29.69
2023-05-28T17:03:15.892Z,29.61
2023-05-28T17:05:45.080Z,30.22
2023-05-28T17:08:14.345Z,30.15
2023-05-28T17:10:43.519Z,30.79
2023-05-28T17:13:12.606Z,30.92
2023-05-28T17:15:42.441Z,31.51
2023-05-28T17:18:13.084Z,31.70
2023-05-28T17:20:42.051Z,31.75
2023-05-28T17:23:11.125Z,31.82
2023-05-28T17:25:40.580Z,31.91
2023-05-28T17:28:09.717Z,32.12
2023-05-28T17:30:38.492Z,32.60
2023-05-28T17:33:07.642Z,32.72
2023-05-28T17:35:37.857Z,32.94
2023-05-28T17:38:08.228Z,33.09
2023-05-28T17:40:37.169Z,32.98
2023-05-28T17:43:06.438Z,32.92
2023-05-28T17:45:35.567Z,33.33
2023-05-28T17:48:05.670Z,33.55
2023-05-28T17:50:34.503Z,33.50
2023-05-28T17:53:06.166Z,33.75
2023-05-28T17:55:36.327Z,33.80
2023-05-28T17:58:05.428Z,34.76
2023-05-28T18:00:34.243Z,34.34
2023-05-28T18:03:03.715Z,34.48
2023-05-28T18:05:33.242Z,34.82
2023-05-28T18:08:02.811Z,36.55
2023-05-28T18:10:33.063Z,36.91
2023-05-28T18:13:02.151Z,36.69
2023-05-28T18:15:32.554Z,37.67
2023-05-28T18:18:01.995Z,39.50
2023-05-28T18:20:32.687Z,40.03
2023-05-28T18:23:02.778Z,39.96
2023-05-28T18:25:35.247Z,41.32
2023-05-28T18:28:08.124Z,41.37
2023-05-28T18:30:36.990Z,41.82
2023-05-28T18:33:06.377Z,40.98
2023-05-28T18:35:36.787Z,42.16
2023-05-28T18:38:06.262Z,41.91
2023-05-28T18:40:36.426Z,42.35
2023-05-28T18:43:05.625Z,42.58
2023-05-28T18:45:34.415Z,42.52
2023-05-28T18:48:03.840Z,42.43
2023-05-28T18:50:32.974Z,43.49
2023-05-28T18:53:02.222Z,44.25
2023-05-28T18:55:31.633Z,44.63
2023-05-28T18:58:04.017Z,44.45
2023-05-28T19:00:33.375Z,43.60
2023-05-28T19:03:03.142Z,43.59
2023-05-28T19:05:32.044Z,44.95
2023-05-28T19:08:01.125Z,45.45
2023-05-28T19:10:29.959Z,45.68
2023-05-28T19:12:58.952Z,46.61
2023-05-28T19:15:29.159Z,46.83
2023-05-28T19:17:58.200Z,45.41
2023-05-28T19:20:27.893Z,45.61
2023-05-28T19:22:57.097Z,45.59
2023-05-28T19:25:25.941Z,46.49
2023-05-28T19:27:55.077Z,46.87
2023-05-28T19:30:24.211Z,46.76
2023-05-28T19:32:54.739Z,47.08
2023-05-28T19:35:23.577Z,48.28
2023-05-28T19:37:52.922Z,47.86
2023-05-28T19:40:21.978Z,48.10
2023-05-28T19:42:51.174Z,48.69
2023-05-28T19:45:20.852Z,48.72
2023-05-28T19:47:50.735Z,49.17
2023-05-28T19:50:21.758Z,49.34
2023-05-28T19:52:51.271Z,50.70
2023-05-28T19:55:20.175Z,51.39
2023-05-28T19:57:49.673Z,51.24
2023-05-28T20:00:18.811Z,50.74
2023-05-28T20:02:47.960Z,50.29
2023-05-28T20:05:17.249Z,50.64
2023-05-28T20:07:49.486Z,50.92
2023-05-28T20:10:18.272Z,52.81
2023-05-28T20:12:47.336Z,53.56
2023-05-28T20:15:16.595Z,53.17
2023-05-28T20:17:45.997Z,52.56
2023-05-28T20:20:15.436Z,52.26
2023-05-28T20:22:44.550Z,53.68
2023-05-28T20:25:14.830Z,52.63
2023-05-28T20:27:43.946Z,53.76
2023-05-28T20:30:15.422Z,53.11
2023-05-28T20:32:44.802Z,53.42
2023-05-28T20:35:14.472Z,53.68
2023-05-28T20:37:44.234Z,54.08
2023-05-28T20:40:17.507Z,54.52
2023-05-28T20:42:47.942Z,54.03
2023-05-28T20:45:17.345Z,54.18
2023-05-28T20:47:47.604Z,54.31
2023-05-28T20:50:16.949Z,54.65
2023-05-28T20:52:46.386Z,55.06
2023-05-28T20:55:18.122Z,54.76
2023-05-28T20:57:50.090Z,55.26
2023-05-28T21:00:22.690Z,55.15
2023-05-28T21:02:56.951Z,56.03
2023-05-28T21:05:26.623Z,56.75
2023-05-28T21:07:56.548Z,57.85
2023-05-28T21:10:26.912Z,57.80
2023-05-28T21:12:55.984Z,58.01
2023-05-28T21:15:24.781Z,56.60
2023-05-28T21:17:53.993Z,57.00
2023-05-28T21:20:22.784Z,56.68
2023-05-28T21:22:51.740Z,57.35
2023-05-28T21:25:20.528Z,57.01
2023-05-28T21:27:52.596Z,57.42
2023-05-28T21:30:21.538Z,57.25
2023-05-28T21:32:51.364Z,57.14
2023-05-28T21:35:20.188Z,57.26
2023-05-28T21:37:50.593Z,58.12
2023-05-28T21:40:22.125Z,58.53
2023-05-28T21:42:53.064Z,58.08
2023-05-28T21:45:22.648Z,58.63
2023-05-28T21:47:51.873Z,58.53
2023-05-28T21:50:20.834Z,58.88
2023-05-28T21:52:49.927Z,58.41
2023-05-28T21:55:20.257Z,58.82
2023-05-28T21:57:49.202Z,60.22
2023-05-28T22:00:20.466Z,60.41
2023-05-28T22:02:50.404Z,60.69
2023-05-28T22:05:22.686Z,60.28
2023-05-28T22:07:52.890Z,60.00
2023-05-28T22:10:22.199Z,60.09
2023-05-28T22:12:52.141Z,60.03
2023-05-28T22:15:22.458Z,59.96
2023-05-28T22:17:55.444Z,60.30
2023-05-28T22:20:31.366Z,60.29
2023-05-28T22:23:03.894Z,60.41
2023-05-28T22:25:32.581Z,60.78
2023-05-28T22:28:01.626Z,61.54
2023-05-28T22:30:31.726Z,61.75
2023-05-28T22:33:01.258Z,62.47
2023-05-28T22:35:30.689Z,62.74
2023-05-28T22:37:59.721Z,63.30
2023-05-28T22:40:29.172Z,62.55
2023-05-28T22:42:58.158Z,62.47
2023-05-28T22:45:26.892Z,62.49
2023-05-28T22:47:57.584Z,62.49
2023-05-28T22:50:26.554Z,62.16
2023-05-28T22:52:55.581Z,62.60
2023-05-28T22:55:27.461Z,62.37
2023-05-28T22:57:57.261Z,62.86
2023-05-28T23:00:26.035Z,62.98
2023-05-28T23:02:58.212Z,63.39
2023-05-28T23:05:27.231Z,63.36
2023-05-28T23:07:56.350Z,64.25
2023-05-28T23:10:25.494Z,64.42
2023-05-28T23:12:54.485Z,64.21
2023-05-28T23:15:23.254Z,64.78
2023-05-28T23:17:54.783Z,65.01
2023-05-28T23:20:25.354Z,65.81
2023-05-28T23:22:54.633Z,66.04
2023-05-28T23:25:23.823Z,65.83
2023-05-28T23:27:52.758Z,65.86
2023-05-28T23:30:21.664Z,66.04
2023-05-28T23:32:50.888Z,66.74
2023-05-28T23:35:19.740Z,66.58
2023-05-28T23:37:50.131Z,66.33
2023-05-28T23:40:18.955Z,66.16
2023-05-28T23:42:47.899Z,65.85
2023-05-28T23:45:16.954Z,65.71
2023-05-28T23:47:46.110Z,65.71
2023-05-28T23:50:14.870Z,65.80
2023-05-28T23:52:43.936Z,65.80
2023-05-28T23:55:14.054Z,65.77
2023-05-28T23:57:43.120Z,65.73
